createdAt,value
2022-10-17T00:00:43.153Z,8.32
2022-10-17T00:03:10.456Z,8.73
2022-10-17T00:05:47.610Z,12.23
2022-10-17T00:08:15.956Z,8.77
2022-10-17T00:10:43.172Z,8.70
2022-10-17T00:13:10.743Z,10.25
2022-10-17T00:15:37.405Z,10.55
2022-10-17T00:18:04.512Z,9.85
2022-10-17T00:20:32.852Z,10.13
2022-10-17T00:23:00.523Z,9.05
2022-10-17T00:25:27.262Z,8.87
2022-10-17T00:27:53.898Z,9.55
2022-10-17T00:30:20.645Z,9.43
2022-10-17T00:32:47.355Z,8.35
2022-10-17T00:35:13.995Z,9.20
2022-10-17T00:37:40.748Z,9.40
2022-10-17T00:40:08.175Z,15.25
2022-10-17T00:42:35.036Z,9.88
2022-10-17T00:45:07.916Z,9.93
2022-10-17T00:47:36.132Z,8.82
2022-10-17T00:50:04.928Z,8.80
2022-10-17T00:52:32.813Z,8.73
2022-10-17T00:55:13.724Z,8.35
2022-10-17T00:57:41.416Z,8.45
2022-10-17T01:00:10.101Z,8.10
2022-10-17T01:02:36.931Z,8.35
2022-10-17T01:05:04.624Z,8.63
2022-10-17T01:07:34.852Z,8.60
2022-10-17T01:10:06.615Z,8.30
2022-10-17T01:13:16.197Z,11.98
2022-10-17T01:15:52.543Z,9.45
2022-10-17T01:18:42.490Z,9.27
2022-10-17T01:21:37.234Z,7.75
2022-10-17T01:24:14.879Z,8.65
2022-10-17T01:27:00.206Z,12.93
2022-10-17T01:30:04.546Z,8.32
2022-10-17T01:32:31.257Z,8.93
2022-10-17T01:35:15.884Z,9.77
2022-10-17T01:37:48.279Z,14.25
2022-10-17T01:40:22.497Z,9.80
2022-10-17T01:42:59.633Z,8.88
2022-10-17T01:45:45.397Z,9.23
2022-10-17T01:48:22.398Z,9.63
2022-10-17T01:50:54.604Z,10.63
2022-10-17T01:53:28.914Z,9.63
2022-10-17T01:55:58.865Z,10.82
2022-10-17T01:58:37.657Z,11.18
2022-10-17T02:01:07.729Z,11.25
2022-10-17T02:03:35.282Z,10.25
2022-10-17T02:06:02.608Z,12.55
2022-10-17T02:08:45.392Z,12.00
2022-10-17T02:11:24.872Z,12.93
2022-10-17T02:13:56.983Z,11.52
2022-10-17T02:16:32.383Z,12.07
2022-10-17T02:19:23.470Z,12.32
2022-10-17T02:22:08.681Z,12.75
2022-10-17T02:24:47.429Z,13.30
2022-10-17T02:27:38.974Z,13.27
2022-10-17T02:30:21.042Z,11.77
2022-10-17T02:33:01.143Z,12.82
2022-10-17T02:35:32.965Z,12.93
2022-10-17T02:38:00.760Z,13.48
2022-10-17T02:40:29.881Z,11.23
2022-10-17T02:42:58.722Z,12.93
2022-10-17T02:45:27.827Z,12.60
2022-10-17T02:48:00.784Z,16.70
2022-10-17T02:50:52.304Z,12.43
2022-10-17T02:53:30.646Z,12.95
2022-10-17T02:56:02.607Z,12.93
2022-10-17T02:58:33.344Z,13.45
2022-10-17T03:01:00.897Z,13.13
2022-10-17T03:03:30.889Z,14.80
2022-10-17T03:05:57.580Z,13.07
2022-10-17T03:08:24.702Z,11.93
2022-10-17T03:10:51.862Z,14.10
2022-10-17T03:13:18.706Z,13.43
2022-10-17T03:15:46.501Z,14.52
2022-10-17T03:18:14.535Z,13.35
2022-10-17T03:20:41.334Z,14.52
2022-10-17T03:23:08.036Z,14.30
2022-10-17T03:25:34.690Z,15.55
2022-10-17T03:28:01.651Z,14.88
2022-10-17T03:30:28.798Z,16.30
2022-10-17T03:32:57.172Z,16.35
2022-10-17T03:35:24.152Z,16.85
2022-10-17T03:37:50.820Z,21.80
2022-10-17T03:40:17.812Z,15.95
2022-10-17T03:42:44.544Z,16.70
2022-10-17T03:45:11.259Z,15.85
2022-10-17T03:47:37.987Z,16.00
2022-10-17T03:50:05.247Z,16.75
2022-10-17T03:52:31.905Z,15.77
2022-10-17T03:54:58.659Z,15.07
2022-10-17T03:57:25.382Z,16.05
2022-10-17T03:59:52.528Z,16.17
2022-10-17T04:02:19.282Z,15.38
2022-10-17T04:04:46.004Z,15.90
2022-10-17T04:07:12.653Z,15.98
2022-10-17T04:09:39.394Z,19.42
2022-10-17T04:12:06.140Z,14.80
2022-10-17T04:14:32.910Z,15.15
2022-10-17T04:16:59.612Z,14.27
2022-10-17T04:19:26.365Z,14.00
2022-10-17T04:21:53.092Z,15.60
2022-10-17T04:24:19.740Z,13.98
2022-10-17T04:26:50.028Z,13.95
2022-10-17T04:29:16.726Z,16.50
2022-10-17T04:31:43.427Z,16.02
2022-10-17T04:34:10.071Z,13.05
2022-10-17T04:36:36.825Z,12.60
2022-10-17T04:39:05.098Z,14.13
2022-10-17T04:41:32.251Z,12.73
2022-10-17T04:43:58.971Z,14.73
2022-10-17T04:46:25.618Z,13.27
2022-10-17T04:48:53.488Z,12.70
2022-10-17T04:51:23.145Z,12.30
2022-10-17T04:53:52.597Z,13.18
2022-10-17T04:56:21.782Z,12.77
2022-10-17T04:58:50.389Z,20.33
2022-10-17T05:03:45.875Z,12.85
2022-10-17T05:06:23.612Z,13.07
2022-10-17T05:08:50.856Z,20.30
2022-10-17T05:11:28.905Z,13.05
2022-10-17T05:14:01.118Z,13.93
2022-10-17T05:16:29.007Z,11.93
2022-10-17T05:18:57.770Z,12.07
2022-10-17T05:21:26.709Z,11.73
2022-10-17T05:23:53.469Z,11.27
2022-10-17T05:26:21.059Z,11.15
2022-10-17T05:28:48.214Z,11.18
2022-10-17T05:31:15.068Z,18.90
2022-10-17T05:33:41.783Z,11.77
2022-10-17T05:36:08.820Z,11.80
2022-10-17T05:38:35.913Z,13.63
2022-10-17T05:41:04.756Z,11.45
2022-10-17T05:43:32.224Z,10.90
2022-10-17T05:45:58.924Z,15.90
2022-10-17T05:48:25.549Z,10.98
2022-10-17T05:50:59.727Z,10.70
2022-10-17T05:53:27.064Z,11.63
2022-10-17T05:56:01.620Z,10.60
2022-10-17T06:01:15.534Z,12.77
2022-10-17T06:03:42.268Z,9.95
2022-10-17T06:06:12.649Z,12.60
2022-10-17T06:08:39.609Z,11.95
2022-10-17T06:11:09.271Z,12.57
2022-10-17T06:13:38.492Z,11.07
2022-10-17T06:16:06.038Z,11.35
2022-10-17T06:18:33.268Z,10.82
2022-10-17T06:21:09.177Z,11.90
2022-10-17T06:23:36.074Z,14.60
2022-10-17T06:26:04.841Z,10.50
2022-10-17T06:28:31.962Z,16.63
2022-10-17T06:30:58.664Z,10.95
2022-10-17T06:33:25.579Z,13.70
2022-10-17T06:35:54.008Z,13.60
2022-10-17T06:38:21.220Z,11.15
2022-10-17T06:40:47.935Z,12.27
2022-10-17T06:43:14.976Z,12.75
2022-10-17T06:45:42.251Z,12.20
2022-10-17T06:48:09.412Z,11.65
2022-10-17T06:50:36.064Z,13.25
2022-10-17T06:53:02.971Z,11.73
2022-10-17T06:55:31.836Z,12.35
2022-10-17T06:57:58.527Z,11.40
2022-10-17T07:00:26.733Z,10.98
2022-10-17T07:02:53.410Z,10.85
2022-10-17T07:05:20.111Z,10.63
2022-10-17T07:07:48.584Z,11.23
2022-10-17T07:10:17.874Z,11.85
2022-10-17T07:12:45.768Z,11.35
2022-10-17T07:15:12.902Z,14.20
2022-10-17T07:17:39.857Z,16.20
2022-10-17T07:20:07.127Z,13.23
2022-10-17T07:22:33.819Z,11.93
2022-10-17T07:25:00.537Z,16.23
2022-10-17T07:27:27.386Z,13.27
2022-10-17T07:29:54.227Z,12.10
2022-10-17T07:32:20.877Z,14.68
2022-10-17T07:34:47.528Z,16.45
2022-10-17T07:37:14.241Z,11.18
2022-10-17T07:39:41.028Z,11.45
2022-10-17T07:42:07.866Z,10.80
2022-10-17T07:44:35.555Z,11.45
2022-10-17T07:47:02.362Z,11.93
2022-10-17T07:49:29.418Z,11.50
2022-10-17T07:51:56.143Z,13.10
2022-10-17T07:54:23.015Z,11.90
2022-10-17T08:02:54.344Z,13.07
2022-10-17T08:05:21.257Z,16.65
2022-10-17T08:07:49.065Z,12.88
2022-10-17T08:10:16.301Z,12.77
2022-10-17T08:12:43.452Z,21.77
2022-10-17T08:15:10.899Z,14.07
2022-10-17T08:17:38.940Z,12.88
2022-10-17T08:20:06.844Z,13.75
2022-10-17T08:22:34.743Z,13.88
2022-10-17T08:25:01.496Z,14.30
2022-10-17T08:27:28.915Z,21.45
2022-10-17T08:29:55.606Z,14.82
2022-10-17T08:32:26.612Z,15.80
2022-10-17T08:34:53.987Z,22.85
2022-10-17T08:37:20.988Z,16.50
2022-10-17T08:39:49.358Z,20.33
2022-10-17T08:42:31.134Z,19.77
2022-10-17T08:45:18.532Z,16.63
2022-10-17T08:47:48.499Z,22.30
2022-10-17T08:50:25.878Z,20.00
2022-10-17T08:53:14.381Z,20.48
2022-10-17T08:55:45.856Z,22.58
2022-10-17T08:58:26.016Z,19.13
2022-10-17T09:01:41.007Z,25.70
2022-10-17T09:04:35.246Z,17.42
2022-10-17T09:07:20.118Z,21.98
2022-10-17T09:10:18.255Z,26.00
2022-10-17T09:13:07.002Z,20.40
2022-10-17T09:15:44.919Z,20.98
2022-10-17T09:18:27.061Z,23.65
2022-10-17T09:20:53.772Z,21.05
2022-10-17T09:23:25.332Z,19.58
2022-10-17T09:25:58.199Z,19.42
2022-10-17T09:28:32.750Z,20.88
2022-10-17T09:31:11.756Z,20.42
2022-10-17T09:33:56.382Z,25.15
2022-10-17T09:36:24.728Z,21.95
2022-10-17T09:38:57.070Z,28.25
2022-10-17T09:41:44.894Z,26.58
2022-10-17T09:44:37.987Z,26.88
2022-10-17T09:47:14.404Z,24.67
2022-10-17T09:49:43.556Z,19.67
2022-10-17T09:52:29.337Z,23.08
2022-10-17T09:55:01.665Z,24.02
2022-10-17T09:57:28.507Z,25.10
2022-10-17T10:00:05.071Z,27.75
2022-10-17T10:02:33.520Z,23.27
2022-10-17T10:08:04.326Z,23.10
2022-10-17T10:10:32.484Z,20.67
2022-10-17T10:13:16.277Z,28.08
2022-10-17T10:15:44.322Z,29.30
2022-10-17T10:18:26.105Z,26.00
2022-10-17T10:21:16.020Z,22.52
2022-10-17T10:23:45.072Z,20.30
2022-10-17T10:26:27.930Z,18.90
2022-10-17T10:29:18.721Z,19.65
2022-10-17T10:31:45.652Z,18.73
2022-10-17T10:34:26.653Z,19.73
2022-10-17T10:37:03.243Z,18.95
2022-10-17T10:39:43.973Z,19.92
2022-10-17T10:42:22.512Z,21.45
2022-10-17T10:44:50.560Z,18.02
2022-10-17T10:47:24.066Z,19.25
2022-10-17T10:49:52.872Z,18.73
2022-10-17T10:52:45.129Z,18.73
2022-10-17T10:55:29.590Z,21.10
2022-10-17T10:58:09.773Z,19.70
2022-10-17T11:00:38.824Z,18.67
2022-10-17T11:03:27.946Z,21.20
2022-10-17T11:06:06.424Z,16.98
2022-10-17T11:11:18.215Z,15.50
2022-10-17T11:14:13.858Z,15.45
2022-10-17T11:16:54.756Z,16.20
2022-10-17T11:19:36.911Z,16.25
2022-10-17T11:22:28.320Z,15.40
2022-10-17T11:25:16.360Z,14.80
2022-10-17T11:27:43.031Z,14.85
2022-10-17T11:30:14.954Z,13.75
2022-10-17T11:32:59.796Z,14.82
2022-10-17T11:35:40.369Z,14.18
2022-10-17T11:38:27.633Z,14.05
2022-10-17T11:40:59.839Z,15.23
2022-10-17T11:43:38.583Z,15.35
2022-10-17T11:46:25.027Z,15.10
2022-10-17T11:49:19.795Z,15.13
2022-10-17T11:52:02.321Z,14.63
2022-10-17T11:54:35.440Z,14.65
2022-10-17T11:57:14.864Z,13.25
2022-10-17T12:00:07.931Z,15.63
2022-10-17T12:02:56.766Z,15.30
2022-10-17T12:05:37.438Z,13.57
2022-10-17T12:08:26.974Z,14.05
2022-10-17T12:11:14.855Z,13.25
2022-10-17T12:13:47.038Z,14.50
2022-10-17T12:16:21.021Z,15.23
2022-10-17T12:19:02.967Z,15.93
2022-10-17T12:21:55.823Z,16.65
2022-10-17T12:24:29.529Z,13.05
2022-10-17T12:26:57.112Z,11.18
2022-10-17T12:29:29.780Z,8.00
2022-10-17T12:32:11.465Z,8.05
2022-10-17T12:34:55.398Z,7.30
2022-10-17T12:37:57.386Z,6.32
2022-10-17T12:40:35.083Z,4.90
2022-10-17T12:43:03.415Z,5.30
2022-10-17T12:45:49.056Z,5.22
2022-10-17T12:48:34.085Z,4.78
2022-10-17T12:51:34.152Z,4.80
2022-10-17T12:53:59.692Z,5.00
2022-10-17T12:56:32.245Z,10.77
2022-10-17T12:58:59.769Z,4.53
2022-10-17T13:01:32.869Z,5.20
2022-10-17T13:04:06.587Z,3.85
2022-10-17T13:06:37.878Z,5.20
2022-10-17T13:09:23.337Z,4.55
2022-10-17T13:11:51.183Z,5.53
2022-10-17T13:14:20.825Z,6.28
2022-10-17T13:17:00.303Z,4.78
2022-10-17T13:19:31.761Z,5.43
2022-10-17T13:22:06.442Z,5.15
2022-10-17T13:24:39.089Z,5.05
2022-10-17T13:27:21.024Z,7.65
2022-10-17T13:29:47.762Z,10.82
2022-10-17T13:32:17.827Z,6.78
2022-10-17T13:34:44.491Z,6.15
2022-10-17T13:37:14.883Z,6.68
2022-10-17T13:40:11.310Z,6.95
2022-10-17T13:42:40.073Z,8.05
2022-10-17T13:45:23.840Z,7.97
2022-10-17T13:47:50.649Z,11.63
2022-10-17T13:50:43.196Z,9.88
2022-10-17T13:53:24.571Z,9.63
2022-10-17T13:56:09.523Z,9.35
2022-10-17T13:58:44.751Z,10.23
2022-10-17T14:01:14.090Z,9.02
2022-10-17T14:03:48.983Z,9.43
2022-10-17T14:06:22.152Z,11.00
2022-10-17T14:09:05.141Z,9.90
2022-10-17T14:11:44.480Z,10.63
2022-10-17T14:14:26.065Z,11.18
2022-10-17T14:16:53.339Z,11.00
2022-10-17T14:19:33.133Z,11.43
2022-10-17T14:22:26.933Z,13.10
2022-10-17T14:24:54.324Z,12.57
2022-10-17T14:27:31.622Z,13.88
2022-10-17T14:30:00.949Z,13.43
2022-10-17T14:35:18.780Z,13.60
2022-10-17T14:37:52.217Z,14.60
2022-10-17T14:40:21.612Z,15.60
2022-10-17T14:42:48.672Z,15.50
2022-10-17T14:45:42.661Z,17.75
2022-10-17T14:48:17.352Z,15.35
2022-10-17T14:51:05.368Z,16.05
2022-10-17T14:53:32.003Z,15.52
2022-10-17T14:56:05.874Z,16.20
2022-10-17T14:58:37.020Z,14.73
2022-10-17T15:01:03.771Z,14.93
2022-10-17T15:03:30.518Z,14.80
2022-10-17T15:05:58.451Z,15.85
2022-10-17T15:08:26.203Z,14.80
2022-10-17T15:10:53.428Z,15.60
2022-10-17T15:13:29.010Z,14.30
2022-10-17T15:15:57.916Z,15.35
2022-10-17T15:18:24.619Z,15.10
2022-10-17T15:20:59.623Z,14.05
2022-10-17T15:23:31.976Z,14.63
2022-10-17T15:25:58.640Z,15.32
2022-10-17T15:28:25.384Z,13.70
2022-10-17T15:30:52.162Z,13.00
2022-10-17T15:33:18.887Z,14.55
2022-10-17T15:35:52.022Z,13.30
2022-10-17T15:38:18.740Z,12.40
2022-10-17T15:40:48.905Z,11.52
2022-10-17T15:43:19.693Z,13.75
2022-10-17T15:45:47.198Z,11.68
2022-10-17T15:48:28.331Z,10.85
2022-10-17T15:50:55.060Z,11.63
2022-10-17T15:53:22.299Z,14.27
2022-10-17T15:55:50.935Z,11.15
2022-10-17T15:58:18.832Z,10.77
2022-10-17T16:00:46.118Z,11.40
2022-10-17T16:03:14.167Z,10.50
2022-10-17T16:05:41.004Z,12.98
2022-10-17T16:08:07.652Z,10.88
2022-10-17T16:10:36.637Z,11.15
2022-10-17T16:13:03.352Z,9.30
2022-10-17T16:15:30.035Z,11.13
2022-10-17T16:18:00.447Z,10.40
2022-10-17T16:20:29.631Z,13.10
2022-10-17T16:22:59.925Z,18.45
2022-10-17T16:25:28.522Z,9.57
2022-10-17T16:30:26.331Z,13.60
2022-10-17T16:32:59.028Z,8.98
2022-10-17T16:35:33.099Z,8.57
2022-10-17T16:38:03.951Z,10.00
2022-10-17T16:40:30.595Z,9.48
2022-10-17T16:42:57.299Z,13.27
2022-10-17T16:45:24.017Z,10.98
2022-10-17T16:47:50.781Z,9.63
2022-10-17T16:50:17.748Z,11.43
2022-10-17T16:52:44.518Z,8.98
2022-10-17T16:55:11.340Z,8.32
2022-10-17T16:57:38.215Z,9.00
2022-10-17T17:00:06.787Z,8.70
2022-10-17T17:05:00.694Z,11.65
2022-10-17T17:07:29.564Z,10.18
2022-10-17T17:09:56.763Z,7.03
2022-10-17T17:12:23.739Z,6.45
2022-10-17T17:14:50.455Z,6.68
2022-10-17T17:17:30.283Z,9.18
2022-10-17T17:20:04.292Z,8.27
2022-10-17T17:22:30.960Z,13.30
2022-10-17T17:24:57.677Z,5.72
2022-10-17T17:27:26.814Z,9.60
2022-10-17T17:29:53.645Z,8.13
2022-10-17T17:32:21.664Z,8.30
2022-10-17T17:34:48.314Z,9.05
2022-10-17T17:37:15.059Z,5.53
2022-10-17T17:39:42.321Z,7.97
2022-10-17T17:42:08.958Z,5.80
2022-10-17T17:44:35.675Z,8.65
2022-10-17T17:47:02.315Z,12.93
2022-10-17T17:49:29.062Z,16.17
2022-10-17T17:51:55.911Z,9.57
2022-10-17T17:54:22.603Z,12.95
2022-10-17T17:56:49.262Z,13.00
2022-10-17T17:59:15.900Z,9.30
2022-10-17T18:01:43.353Z,13.23
2022-10-17T18:04:10.983Z,9.32
2022-10-17T18:06:38.835Z,6.25
2022-10-17T18:09:06.713Z,11.70
2022-10-17T18:11:33.554Z,8.60
2022-10-17T18:14:03.031Z,13.52
2022-10-17T18:16:31.464Z,11.77
2022-10-17T18:19:02.746Z,13.32
2022-10-17T18:21:33.755Z,15.55
2022-10-17T18:24:00.503Z,13.10
2022-10-17T18:26:27.829Z,61.50
2022-10-17T18:28:54.782Z,35.55
2022-10-17T18:31:32.167Z,17.65
2022-10-17T18:34:02.576Z,20.33
2022-10-17T18:36:30.764Z,24.48
2022-10-17T18:38:58.877Z,12.32
2022-10-17T18:41:26.976Z,9.25
2022-10-17T18:43:55.136Z,11.20
2022-10-17T18:46:24.996Z,9.38
2022-10-17T18:48:51.916Z,13.52
2022-10-17T18:51:21.296Z,10.80
2022-10-17T18:53:50.019Z,13.40
2022-10-17T18:56:21.344Z,25.77
2022-10-17T18:58:48.167Z,21.50
2022-10-17T19:01:17.668Z,13.80
2022-10-17T19:03:48.440Z,9.48
2022-10-17T19:06:17.812Z,12.88
2022-10-17T19:08:45.625Z,16.40
2022-10-17T19:11:15.301Z,11.20
2022-10-17T19:13:43.900Z,13.35
2022-10-17T19:21:10.136Z,11.43
2022-10-17T19:23:38.182Z,12.73
2022-10-17T19:26:07.646Z,17.00
2022-10-17T19:28:36.026Z,28.00
2022-10-17T19:31:02.757Z,25.65
2022-10-17T19:33:30.891Z,15.68
2022-10-17T19:35:59.625Z,14.18
2022-10-17T19:38:26.737Z,13.38
2022-10-17T19:40:53.920Z,17.55
2022-10-17T19:43:21.262Z,13.07
2022-10-17T19:45:59.238Z,17.02
2022-10-17T19:48:27.068Z,14.40
2022-10-17T19:50:54.224Z,16.25
2022-10-17T19:53:23.618Z,16.08
2022-10-17T19:55:51.050Z,18.48
2022-10-17T19:58:17.773Z,15.82
2022-10-17T20:00:49.550Z,15.60
2022-10-17T20:03:17.144Z,15.40
2022-10-17T20:05:44.294Z,14.80
2022-10-17T20:08:11.006Z,13.82
2022-10-17T20:10:37.810Z,16.02
2022-10-17T20:13:04.542Z,15.48
2022-10-17T20:15:31.462Z,16.67
2022-10-17T20:17:58.427Z,13.18
2022-10-17T20:20:25.703Z,15.38
2022-10-17T20:22:54.727Z,13.50
2022-10-17T20:25:21.481Z,18.48
2022-10-17T20:27:48.206Z,16.30
2022-10-17T20:30:14.887Z,21.33
2022-10-17T20:32:41.564Z,17.40
2022-10-17T20:35:08.996Z,17.85
2022-10-17T20:37:42.368Z,20.55
2022-10-17T20:40:33.659Z,20.52
2022-10-17T20:42:57.105Z,19.67
2022-10-17T20:45:37.438Z,19.48
2022-10-17T20:48:15.115Z,19.17
2022-10-17T20:50:42.786Z,20.65
2022-10-17T20:53:34.989Z,22.43
2022-10-17T20:56:05.211Z,22.15
2022-10-17T20:58:32.194Z,22.65
2022-10-17T21:00:58.956Z,23.63
2022-10-17T21:03:26.617Z,27.23
2022-10-17T21:05:53.322Z,19.80
2022-10-17T21:08:20.081Z,23.15
2022-10-17T21:10:46.791Z,21.75
2022-10-17T21:13:13.480Z,20.52
2022-10-17T21:15:40.153Z,20.63
2022-10-17T21:18:06.811Z,25.35
2022-10-17T21:20:33.567Z,20.88
2022-10-17T21:23:01.425Z,27.35
2022-10-17T21:25:28.181Z,26.48
2022-10-17T21:27:55.001Z,22.35
2022-10-17T21:30:21.795Z,21.92
2022-10-17T21:32:52.476Z,19.70
2022-10-17T21:35:19.327Z,19.80
2022-10-17T21:37:46.116Z,21.08
2022-10-17T21:40:13.040Z,23.25
2022-10-17T21:42:39.756Z,22.17
2022-10-17T21:45:15.322Z,24.98
2022-10-17T21:48:11.093Z,20.05
2022-10-17T21:50:33.766Z,18.33
2022-10-17T21:53:00.406Z,20.17
2022-10-17T21:55:27.069Z,20.42
2022-10-17T21:57:53.793Z,18.90
2022-10-17T22:00:20.522Z,20.08
2022-10-17T22:02:47.172Z,20.45
2022-10-17T22:05:14.224Z,19.67
2022-10-17T22:07:40.888Z,23.45
2022-10-17T22:10:07.855Z,24.27
2022-10-17T22:12:34.492Z,17.08
2022-10-17T22:15:01.213Z,17.48
2022-10-17T22:17:28.140Z,18.63
2022-10-17T22:19:54.965Z,19.63
2022-10-17T22:22:21.686Z,17.40
2022-10-17T22:24:48.349Z,17.92
2022-10-17T22:27:15.084Z,17.15
2022-10-17T22:29:41.741Z,17.60
2022-10-17T22:32:08.569Z,17.48
2022-10-17T22:34:35.447Z,16.98
2022-10-17T22:37:02.145Z,21.50
2022-10-17T22:39:28.892Z,16.65
2022-10-17T22:41:55.645Z,16.70
2022-10-17T22:44:22.298Z,18.25
2022-10-17T22:46:49.217Z,15.93
2022-10-17T22:49:15.961Z,16.70
2022-10-17T22:51:45.148Z,15.48
2022-10-17T22:54:11.916Z,17.77
2022-10-17T22:56:38.582Z,18.08
2022-10-17T22:59:05.315Z,17.02
2022-10-17T23:01:31.998Z,16.13
2022-10-17T23:03:58.834Z,17.33
2022-10-17T23:06:25.636Z,16.45
2022-10-17T23:08:52.472Z,17.55
2022-10-17T23:11:20.907Z,15.93
2022-10-17T23:16:14.399Z,22.98
2022-10-17T23:18:41.091Z,24.42
2022-10-17T23:21:10.123Z,35.03
2022-10-17T23:23:37.031Z,23.67
2022-10-17T23:26:06.003Z,64.20
2022-10-17T23:28:35.508Z,99.18
2022-10-17T23:31:17.174Z,47.45
2022-10-17T23:33:45.209Z,61.28
2022-10-17T23:36:14.167Z,76.07
2022-10-17T23:38:41.912Z,39.10
2022-10-17T23:41:09.140Z,58.03
2022-10-17T23:43:36.065Z,62.03
2022-10-17T23:46:04.406Z,42.92
2022-10-17T23:48:31.199Z,93.03
2022-10-17T23:50:58.062Z,58.47
2022-10-17T23:53:24.952Z,23.67
2022-10-17T23:55:51.935Z,30.95
2022-10-17T23:58:18.803Z,22.33
